TimeEST,TemperatureF,Dew PointF,Humidity,Sea Level PressureIn,VisibilityMPH,Wind Direction,Wind SpeedMPH,Gust SpeedMPH,PrecipitationIn,Events,Conditions,WindDirDegrees,DateUTC
12:15 AM,24.8,21.2,86,29.55,10.0,NNW,8.1,-,N/A,,Overcast,330,2014-01-17 05:15:00
12:35 AM,24.8,21.2,86,29.54,10.0,NNW,9.2,-,N/A,,Overcast,330,2014-01-17 05:35:00
12:55 AM,24.8,19.4,80,29.54,10.0,NNW,6.9,16.1,N/A,,Overcast,340,2014-01-17 05:55:00
1:15 AM,24.8,21.2,86,29.54,10.0,NNW,6.9,-,N/A,,Overcast,330,2014-01-17 06:15:00
1:35 AM,24.8,19.4,80,29.54,10.0,NNW,6.9,-,N/A,,Overcast,330,2014-01-17 06:35:00
1:55 AM,24.8,21.2,86,29.55,7.0,NW,6.9,-,N/A,,Overcast,320,2014-01-17 06:55:00
2:15 AM,24.8,21.2,86,29.55,5.0,NW,5.8,-,N/A,,Overcast,310,2014-01-17 07:15:00
2:35 AM,23.0,19.4,86,29.55,2.5,NW,6.9,-,N/A,,Overcast,320,2014-01-17 07:35:00
2:55 AM,23.0,19.4,86,29.56,1.8,NW,5.8,-,N/A,,Overcast,320,2014-01-17 07:55:00
3:15 AM,23.0,19.4,86,29.56,1.2,NW,6.9,-,N/A,,Overcast,320,2014-01-17 08:15:00
3:35 AM,21.2,19.4,93,29.57,1.5,NW,5.8,-,N/A,,Overcast,320,2014-01-17 08:35:00
3:55 AM,21.2,19.4,93,29.57,4.0,NW,5.8,-,N/A,,Overcast,320,2014-01-17 08:55:00
4:15 AM,21.2,19.4,93,29.58,7.0,NW,5.8,-,N/A,,Overcast,310,2014-01-17 09:15:00
4:35 AM,23.0,19.4,86,29.58,7.0,NW,6.9,-,N/A,,Overcast,320,2014-01-17 09:35:00
4:55 AM,23.0,19.4,86,29.58,2.5,NW,6.9,-,N/A,,Overcast,320,2014-01-17 09:55:00
5:15 AM,23.0,19.4,86,29.58,2.0,NNW,6.9,-,N/A,,Overcast,330,2014-01-17 10:15:00
5:35 AM,23.0,19.4,86,29.59,2.5,NNW,6.9,-,N/A,,Overcast,330,2014-01-17 10:35:00
5:55 AM,23.0,19.4,86,29.59,3.0,NNW,6.9,-,N/A,,Overcast,330,2014-01-17 10:55:00
6:15 AM,23.0,19.4,86,29.60,2.0,NNW,5.8,-,N/A,,Overcast,330,2014-01-17 11:15:00
6:35 AM,23.0,19.4,86,29.61,2.5,NNW,5.8,-,N/A,,Overcast,340,2014-01-17 11:35:00
6:55 AM,23.0,19.4,86,29.61,3.0,NNW,5.8,-,N/A,,Overcast,330,2014-01-17 11:55:00
7:15 AM,23.0,21.2,93,29.61,2.5,NNW,4.6,-,N/A,,Overcast,330,2014-01-17 12:15:00
8:35 AM,24.8,21.2,86,29.64,1.5,NW,4.6,-,N/A,,Overcast,320,2014-01-17 13:35:00
8:55 AM,24.8,21.2,86,29.65,1.8,North,4.6,-,N/A,,Overcast,350,2014-01-17 13:55:00
9:15 AM,24.8,21.2,86,29.66,1.5,North,4.6,-,N/A,,Overcast,350,2014-01-17 14:15:00
9:35 AM,24.8,21.2,86,29.66,2.0,NNW,4.6,-,N/A,,Overcast,340,2014-01-17 14:35:00
9:55 AM,26.6,21.2,80,29.68,3.0,North,4.6,-,N/A,,Overcast,350,2014-01-17 14:55:00
10:15 AM,26.6,23.0,86,29.68,1.5,North,4.6,-,N/A,,Overcast,360,2014-01-17 15:15:00
10:35 AM,26.6,24.8,93,29.69,1.0,NNE,6.9,-,N/A,,Overcast,20,2014-01-17 15:35:00
10:55 AM,26.6,24.8,93,29.70,1.0,NNE,9.2,-,N/A,,Overcast,20,2014-01-17 15:55:00
11:15 AM,26.6,24.8,93,29.71,0.8,North,8.1,-,N/A,,Overcast,10,2014-01-17 16:15:00
11:35 AM,28.4,24.8,86,29.71,2.5,North,11.5,17.3,0.01,,Overcast,360,2014-01-17 16:35:00
11:55 AM,26.6,21.2,80,29.72,4.0,North,11.5,21.9,0.04,,Mostly Cloudy,360,2014-01-17 16:55:00
12:15 PM,26.6,21.2,80,29.72,4.0,NNW,12.7,19.6,0.05,,Overcast,330,2014-01-17 17:15:00
12:35 PM,26.6,21.2,80,29.73,10.0,NNW,9.2,20.7,0.09,,Overcast,330,2014-01-17 17:35:00
12:55 PM,26.6,19.4,74,29.74,10.0,NNW,12.7,20.7,0.12,,Overcast,340,2014-01-17 17:55:00
1:15 PM,24.8,17.6,74,29.74,10.0,NNW,11.5,18.4,N/A,,Overcast,340,2014-01-17 18:15:00
1:35 PM,24.8,17.6,74,29.74,10.0,North,12.7,20.7,N/A,,Overcast,350,2014-01-17 18:35:00
1:55 PM,24.8,17.6,74,29.74,10.0,NNW,13.8,20.7,N/A,,Overcast,330,2014-01-17 18:55:00
2:15 PM,24.8,15.8,69,29.75,10.0,North,11.5,19.6,N/A,,Overcast,350,2014-01-17 19:15:00
2:35 PM,23.0,14.0,68,29.76,10.0,NNW,13.8,23.0,N/A,,Overcast,340,2014-01-17 19:35:00
2:55 PM,21.2,12.2,68,29.77,7.0,NNW,15.0,21.9,N/A,,Overcast,340,2014-01-17 19:55:00
3:15 PM,21.2,14.0,74,29.77,10.0,NNW,16.1,25.3,N/A,,Overcast,340,2014-01-17 20:15:00
3:35 PM,21.2,12.2,68,29.78,10.0,North,16.1,19.6,0.14,,Overcast,350,2014-01-17 20:35:00
3:55 PM,21.2,10.4,63,29.79,10.0,North,9.2,24.2,0.15,,Overcast,350,2014-01-17 20:55:00
4:15 PM,21.2,10.4,63,29.80,10.0,North,15.0,20.7,N/A,,Overcast,350,2014-01-17 21:15:00
4:35 PM,19.4,10.4,68,29.81,10.0,NNW,13.8,20.7,N/A,,Overcast,340,2014-01-17 21:35:00
4:55 PM,19.4,10.4,68,29.81,10.0,NNW,10.4,16.1,N/A,,Overcast,330,2014-01-17 21:55:00
5:15 PM,19.4,10.4,68,29.81,10.0,NNW,11.5,18.4,0.01,,Overcast,340,2014-01-17 22:15:00
5:35 PM,19.4,8.6,63,29.82,10.0,NNW,11.5,16.1,0.01,,Overcast,330,2014-01-17 22:35:00
5:55 PM,17.6,8.6,68,29.83,10.0,NW,11.5,16.1,0.01,,Overcast,320,2014-01-17 22:55:00
6:15 PM,17.6,8.6,68,29.84,10.0,NNW,10.4,18.4,N/A,,Overcast,330,2014-01-17 23:15:00
6:35 PM,17.6,8.6,68,29.84,10.0,NNW,9.2,18.4,N/A,,Overcast,330,2014-01-17 23:35:00
6:55 PM,17.6,10.4,73,29.84,10.0,NW,8.1,-,N/A,,Mostly Cloudy,320,2014-01-17 23:55:00
7:15 PM,17.6,8.6,68,29.85,10.0,NW,8.1,-,N/A,,Overcast,320,2014-01-18 00:15:00
7:35 PM,15.8,8.6,73,29.85,10.0,NW,6.9,-,0.01,,Overcast,320,2014-01-18 00:35:00
7:55 PM,15.8,8.6,73,29.86,10.0,NW,9.2,-,0.01,,Overcast,310,2014-01-18 00:55:00
8:15 PM,15.8,8.6,73,29.86,10.0,NW,9.2,-,N/A,,Overcast,310,2014-01-18 01:15:00
8:35 PM,15.8,8.6,73,29.86,10.0,NW,9.2,-,0.05,,Overcast,310,2014-01-18 01:35:00
8:55 PM,15.8,6.8,68,29.86,10.0,NW,9.2,-,0.10,,Overcast,310,2014-01-18 01:55:00
9:15 PM,15.8,8.6,73,29.86,10.0,NW,8.1,-,N/A,,Overcast,310,2014-01-18 02:15:00
9:35 PM,15.8,8.6,73,29.86,10.0,WNW,10.4,-,N/A,,Overcast,300,2014-01-18 02:35:00
9:55 PM,15.8,8.6,73,29.86,10.0,WNW,9.2,-,N/A,,Overcast,300,2014-01-18 02:55:00
10:15 PM,14.0,5.0,67,29.86,10.0,WNW,10.4,-,N/A,,Overcast,300,2014-01-18 03:15:00
10:35 PM,14.0,6.8,73,29.85,10.0,WNW,9.2,-,N/A,,Overcast,300,2014-01-18 03:35:00
10:55 PM,12.2,8.6,85,29.85,10.0,WNW,10.4,-,N/A,,Overcast,300,2014-01-18 03:55:00
11:15 PM,12.2,6.8,79,29.84,10.0,WNW,11.5,-,0.01,,Overcast,300,2014-01-18 04:15:00
11:35 PM,12.2,5.0,73,29.84,10.0,WNW,10.4,-,0.01,,Mostly Cloudy,300,2014-01-18 04:35:00
11:55 PM,12.2,6.8,79,29.84,10.0,WNW,9.2,-,0.01,,Mostly Cloudy,300,2014-01-18 04:55:00